Time;durP1;ratioP1;P1;durP2;ratioP2;P2;SDS_P1;SDS_P2;PMS_P1;PMS_P2;Temp;Humidity;BMP_temperature;BMP_pressure;BME280_temperature;BME280_humidity;BME280_pressure;Samples;Min_cycle;Max_cycle;Signal;HPM_P1;HPM_P2
2022/04/14 00:01:47;;;;;;;11.93;10.83;;;12.20;99.90;;;;;;5030647;28;20425;-56
2022/04/14 00:04:13;;;;;;;12.80;11.50;;;12.20;99.90;;;;;;5014741;28;20377;-54
2022/04/14 00:06:39;;;;;;;13.47;10.97;;;12.20;99.90;;;;;;5016079;28;20574;-56
2022/04/14 00:09:04;;;;;;;11.37;10.37;;;12.20;99.90;;;;;;5017705;28;20195;-57
2022/04/14 00:11:30;;;;;;;12.10;10.90;;;12.20;99.90;;;;;;5010861;28;20183;-55
2022/04/14 00:13:56;;;;;;;11.90;10.80;;;12.30;99.90;;;;;;5012901;28;20591;-56
2022/04/14 00:16:22;;;;;;;12.70;11.60;;;12.40;99.90;;;;;;5011060;28;20435;-53
2022/04/14 00:18:47;;;;;;;12.20;10.97;;;12.30;99.90;;;;;;5007943;28;20461;-56
2022/04/14 00:21:13;;;;;;;11.37;10.20;;;12.30;99.90;;;;;;5010551;28;20206;-56
2022/04/14 00:23:39;;;;;;;12.10;10.77;;;12.30;99.90;;;;;;5009726;28;20219;-55
2022/04/14 00:26:05;;;;;;;11.83;10.73;;;12.40;99.90;;;;;;5010522;28;21132;-55
2022/04/14 00:28:30;;;;;;;12.40;11.07;;;12.40;99.90;;;;;;5009079;28;20198;-57
2022/04/14 00:30:57;;;;;;;11.50;10.43;;;12.40;99.90;;;;;;5009393;28;20195;-57
2022/04/14 00:33:23;;;;;;;12.00;10.80;;;12.50;99.90;;;;;;5010334;28;20532;-56
2022/04/14 00:35:48;;;;;;;11.60;10.50;;;12.60;99.90;;;;;;5008922;28;20453;-57
2022/04/14 00:38:14;;;;;;;11.60;10.50;;;12.70;99.90;;;;;;5010232;28;20647;-57
2022/04/14 00:40:39;;;;;;;11.30;10.20;;;12.80;99.90;;;;;;5007747;28;20626;-57
2022/04/14 00:43:05;;;;;;;10.73;9.83;;;12.80;99.90;;;;;;5010138;28;20334;-56
2022/04/14 00:45:30;;;;;;;11.97;10.70;;;12.90;99.90;;;;;;5008445;28;20179;-57
2022/04/14 00:47:56;;;;;;;11.93;10.57;;;13.00;99.90;;;;;;5010017;28;20179;-56
2022/04/14 00:50:22;;;;;;;11.87;10.67;;;13.00;99.90;;;;;;5008507;28;20642;-57
2022/04/14 00:52:47;;;;;;;11.83;10.70;;;13.20;99.90;;;;;;5009963;28;20627;-57
2022/04/14 00:55:14;;;;;;;10.17;9.27;;;13.20;99.90;;;;;;5009276;28;20722;-57
2022/04/14 00:57:39;;;;;;;13.53;10.60;;;13.20;99.90;;;;;;5010013;28;20222;-55
2022/04/14 01:00:06;;;;;;;11.17;10.07;;;13.30;99.90;;;;;;5009157;28;21129;-57
2022/04/14 01:02:32;;;;;;;10.90;9.90;;;13.30;99.90;;;;;;4990464;28;20224;-55
2022/04/14 01:04:59;;;;;;;12.20;10.90;;;13.30;99.90;;;;;;4990546;28;20434;-56
2022/04/14 01:07:25;;;;;;;12.20;11.00;;;13.40;99.90;;;;;;5006769;28;20943;-54
2022/04/14 01:09:52;;;;;;;11.17;10.20;;;13.50;99.90;;;;;;5009777;28;20415;-56
2022/04/14 01:12:17;;;;;;;11.13;10.13;;;13.50;99.90;;;;;;5008735;28;21180;-54
2022/04/14 01:14:43;;;;;;;10.67;9.70;;;13.50;99.90;;;;;;5011845;28;20418;-58
2022/04/14 01:17:09;;;;;;;11.57;10.43;;;13.60;99.90;;;;;;5014706;28;20630;-57
2022/04/14 01:19:36;;;;;;;11.77;10.57;;;13.60;99.90;;;;;;5023348;28;20183;-57
2022/04/14 01:22:30;;;;;;;12.13;10.93;;;13.60;99.90;;;;;;5023686;28;20449;-57
2022/04/14 01:24:57;;;;;;;11.40;10.20;;;13.60;99.90;;;;;;5023080;28;20447;-58
2022/04/14 01:27:26;;;;;;;11.40;10.50;;;13.60;99.90;;;;;;5008974;28;21221;-56
2022/04/14 01:29:53;;;;;;;11.40;10.40;;;13.60;99.90;;;;;;5014310;28;20425;-60
2022/04/14 01:32:19;;;;;;;11.27;10.27;;;13.70;99.90;;;;;;5008441;28;20430;-61
2022/04/14 01:34:45;;;;;;;11.60;10.60;;;13.60;99.90;;;;;;5022532;28;20417;-60
2022/04/14 01:37:11;;;;;;;11.17;10.10;;;13.60;99.90;;;;;;5017410;28;20472;-60
2022/04/14 01:39:37;;;;;;;11.97;10.73;;;13.60;99.90;;;;;;5019847;28;20417;-56
2022/04/14 01:42:04;;;;;;;11.73;10.53;;;13.70;99.90;;;;;;5021452;28;20888;-57
2022/04/14 01:44:30;;;;;;;11.87;10.87;;;13.60;99.90;;;;;;5019403;28;20478;-53
2022/04/14 01:46:56;;;;;;;11.50;10.40;;;13.60;99.90;;;;;;5019777;28;20446;-57
2022/04/14 01:49:21;;;;;;;9.83;8.93;;;13.60;99.90;;;;;;5016635;28;20313;-54
2022/04/14 01:51:50;;;;;;;10.63;9.73;;;13.50;99.90;;;;;;5025464;28;20193;-58
2022/04/14 01:54:16;;;;;;;12.10;10.33;;;13.50;99.90;;;;;;5014739;28;20187;-57
2022/04/14 01:56:42;;;;;;;11.13;10.20;;;13.40;99.90;;;;;;5015479;28;20542;-55
2022/04/14 01:59:10;;;;;;;12.10;10.97;;;13.40;99.90;;;;;;5011503;28;20517;-57
2022/04/14 02:01:35;;;;;;;12.07;10.50;;;13.40;99.90;;;;;;5028874;28;20700;-57
2022/04/14 02:04:02;;;;;;;12.23;11.03;;;13.40;99.90;;;;;;5013711;28;20560;-59
2022/04/14 02:06:28;;;;;;;11.90;10.73;;;13.30;99.90;;;;;;5029030;28;20208;-56
2022/04/14 02:08:55;;;;;;;12.40;11.23;;;13.30;99.90;;;;;;5013871;28;20445;-56
2022/04/14 02:11:20;;;;;;;12.17;10.97;;;13.30;99.90;;;;;;5019017;28;20461;-58
2022/04/14 02:13:46;;;;;;;11.93;10.80;;;13.20;99.90;;;;;;5004677;28;20435;-57
2022/04/14 02:16:11;;;;;;;12.10;10.90;;;13.20;99.90;;;;;;5007163;28;20617;-58
2022/04/14 02:18:37;;;;;;;12.57;11.33;;;13.20;99.90;;;;;;5005840;28;20270;-56
2022/04/14 02:21:02;;;;;;;12.10;10.90;;;13.20;99.90;;;;;;5009104;28;20188;-57
2022/04/14 02:23:28;;;;;;;11.63;10.63;;;13.10;99.90;;;;;;5020558;28;20204;-57
2022/04/14 02:25:53;;;;;;;12.30;11.10;;;13.10;99.90;;;;;;5008876;28;20532;-58
2022/04/14 02:28:19;;;;;;;11.10;10.20;;;13.00;99.90;;;;;;5024696;28;20194;-57
2022/04/14 02:30:45;;;;;;;11.33;10.30;;;13.00;99.90;;;;;;5011331;28;20239;-54
2022/04/14 02:33:11;;;;;;;11.20;10.20;;;12.90;99.90;;;;;;5008466;28;20438;-58
2022/04/14 02:35:37;;;;;;;11.63;10.57;;;13.00;99.90;;;;;;5028577;28;21007;-55
2022/04/14 02:38:02;;;;;;;12.53;11.23;;;12.90;99.90;;;;;;5025553;28;20521;-55
2022/04/14 02:40:28;;;;;;;11.33;10.23;;;12.80;99.90;;;;;;5031966;28;20183;-56
2022/04/14 02:42:56;;;;;;;12.63;11.20;;;12.80;99.90;;;;;;5026122;28;20229;-54
2022/04/14 02:45:23;;;;;;;11.50;10.60;;;12.80;99.90;;;;;;5019646;28;20187;-58
2022/04/14 02:47:50;;;;;;;12.40;11.27;;;12.70;99.90;;;;;;5027760;28;20434;-56
2022/04/14 02:50:15;;;;;;;12.00;11.00;;;12.60;99.90;;;;;;5030307;28;20422;-56
2022/04/14 02:52:41;;;;;;;13.40;12.00;;;12.50;99.90;;;;;;5018205;28;20987;-58
2022/04/14 02:55:07;;;;;;;11.93;10.90;;;12.50;99.90;;;;;;5015446;28;21217;-53
2022/04/14 02:57:34;;;;;;;12.77;11.47;;;12.40;99.90;;;;;;5016763;28;20540;-55
2022/04/14 03:00:00;;;;;;;12.80;11.70;;;12.40;99.90;;;;;;5031844;28;20758;-58
2022/04/14 03:02:25;;;;;;;12.40;11.10;;;12.30;99.90;;;;;;5018277;28;20935;-55
2022/04/14 03:04:51;;;;;;;11.83;10.70;;;12.10;99.90;;;;;;5020938;28;20497;-53
2022/04/14 03:07:17;;;;;;;11.63;10.53;;;11.90;99.90;;;;;;5012600;28;20613;-57
2022/04/14 03:09:43;;;;;;;11.77;10.67;;;11.80;99.90;;;;;;5031065;28;20187;-56
2022/04/14 03:12:09;;;;;;;12.47;11.20;;;11.60;99.90;;;;;;5019600;28;20187;-56
2022/04/14 03:14:34;;;;;;;11.20;10.20;;;11.50;99.90;;;;;;5015568;28;20183;-54
2022/04/14 03:17:00;;;;;;;15.03;10.90;;;11.40;99.90;;;;;;5014031;28;20434;-55
2022/04/14 03:19:25;;;;;;;12.07;10.97;;;11.30;99.90;;;;;;5011527;28;20200;-57
2022/04/14 03:21:51;;;;;;;11.30;10.30;;;11.10;99.90;;;;;;5012337;28;20262;-57
2022/04/14 03:24:17;;;;;;;12.50;11.30;;;11.00;99.90;;;;;;5013260;28;20204;-55
2022/04/14 03:26:42;;;;;;;12.03;11.10;;;10.90;99.90;;;;;;5021599;28;20180;-57
2022/04/14 03:29:08;;;;;;;12.47;11.37;;;10.80;99.90;;;;;;5023519;28;20187;-57
2022/04/14 03:31:33;;;;;;;12.10;11.00;;;10.70;1.00;;;;;;5008939;28;20188;-58
2022/04/14 03:33:59;;;;;;;12.13;11.03;;;10.60;1.00;;;;;;5018394;28;20738;-56
2022/04/14 03:36:25;;;;;;;11.90;10.70;;;10.60;1.00;;;;;;5026273;28;20313;-52
2022/04/14 03:38:50;;;;;;;12.17;11.17;;;10.50;1.00;;;;;;5011282;28;20651;-57
2022/04/14 03:41:16;;;;;;;12.70;11.60;;;10.40;1.00;;;;;;5012965;28;20191;-56
2022/04/14 03:43:41;;;;;;;12.33;11.10;;;10.40;1.00;;;;;;5012435;28;20261;-56
2022/04/14 03:46:08;;;;;;;12.13;11.03;;;10.20;1.00;;;;;;5027377;28;20190;-54
2022/04/14 03:48:34;;;;;;;12.93;11.57;;;10.20;1.00;;;;;;5013809;28;20823;-57
2022/04/14 03:50:59;;;;;;;13.50;12.30;;;10.10;1.00;;;;;;5030334;28;20417;-56
2022/04/14 03:53:25;;;;;;;12.70;11.50;;;10.00;1.00;;;;;;5022990;28;20187;-53
2022/04/14 03:55:51;;;;;;;13.10;12.00;;;10.00;1.00;;;;;;5017648;28;20238;-57
2022/04/14 03:58:16;;;;;;;13.93;12.50;;;10.00;1.00;;;;;;5011781;28;20194;-57
2022/04/14 04:00:43;;;;;;;13.20;12.00;;;9.90;1.00;;;;;;5023049;28;20421;-55
2022/04/14 04:03:09;;;;;;;14.53;12.80;;;9.80;1.00;;;;;;5017017;28;20250;-56
2022/04/14 04:05:35;;;;;;;14.27;12.90;;;9.80;56.00;;;;;;5021303;28;20999;-54
2022/04/14 04:08:01;;;;;;;12.83;11.70;;;9.70;99.90;;;;;;5014200;28;20567;-58
2022/04/14 04:10:27;;;;;;;14.43;12.93;;;9.60;1.00;;;;;;5011982;28;20449;-57
2022/04/14 04:12:52;;;;;;;14.00;12.60;;;9.50;1.00;;;;;;5011937;28;20932;-56
2022/04/14 04:15:18;;;;;;;15.47;13.97;;;9.50;1.00;;;;;;5012467;28;20261;-56
2022/04/14 04:17:45;;;;;;;17.97;13.83;;;9.50;99.90;;;;;;5010658;28;20196;-55
2022/04/14 04:20:11;;;;;;;17.07;14.43;;;9.50;99.90;;;;;;5012097;28;20186;-55
2022/04/14 04:22:36;;;;;;;17.90;15.77;;;9.50;99.90;;;;;;5009351;28;20812;-56
2022/04/14 04:25:03;;;;;;;17.90;15.97;;;9.50;99.90;;;;;;5010767;28;20180;-52
2022/04/14 04:27:29;;;;;;;16.00;14.40;;;9.40;99.90;;;;;;5012168;28;20184;-53
2022/04/14 04:29:55;;;;;;;15.73;14.13;;;9.40;99.90;;;;;;5011714;28;20488;-56
2022/04/14 04:32:20;;;;;;;15.80;14.20;;;9.40;99.90;;;;;;5020735;28;20417;-53
2022/04/14 04:34:46;;;;;;;15.87;14.10;;;9.40;99.90;;;;;;5018943;28;20237;-51
2022/04/14 04:37:12;;;;;;;14.03;12.73;;;9.50;99.90;;;;;;5030589;28;20186;-57
2022/04/14 04:39:37;;;;;;;14.20;12.70;;;9.50;99.90;;;;;;5017310;28;20194;-54
2022/04/14 04:42:03;;;;;;;15.53;13.73;;;9.50;99.90;;;;;;5018790;28;20179;-56
2022/04/14 04:44:28;;;;;;;16.40;13.37;;;9.50;99.90;;;;;;5015627;28;20207;-55
2022/04/14 04:46:54;;;;;;;14.00;12.60;;;9.60;99.90;;;;;;5018124;28;20192;-54
2022/04/14 04:49:19;;;;;;;14.40;12.93;;;9.70;99.90;;;;;;5010753;28;20184;-55
2022/04/14 04:51:45;;;;;;;13.67;12.37;;;9.70;99.90;;;;;;5010057;28;20196;-54
2022/04/14 04:54:11;;;;;;;12.83;11.53;;;9.80;99.90;;;;;;5009678;28;20274;-57
2022/04/14 04:56:36;;;;;;;14.10;12.60;;;9.90;99.90;;;;;;5015825;28;20190;-57
2022/04/14 04:59:02;;;;;;;15.17;13.27;;;9.90;99.90;;;;;;5015680;28;20191;-56
2022/04/14 05:01:28;;;;;;;15.77;12.70;;;9.90;99.90;;;;;;5009133;28;20963;-56
2022/04/14 05:03:54;;;;;;;14.83;13.40;;;9.80;99.90;;;;;;5008926;28;20477;-55
2022/04/14 05:06:20;;;;;;;14.50;12.80;;;9.90;99.90;;;;;;5008492;28;20268;-54
2022/04/14 05:08:46;;;;;;;15.00;13.40;;;9.90;99.90;;;;;;5009796;28;20505;-56
2022/04/14 05:11:13;;;;;;;14.57;13.07;;;10.00;99.90;;;;;;5009177;28;20222;-52
2022/04/14 05:13:38;;;;;;;15.63;13.17;;;10.00;99.90;;;;;;5009958;28;20402;-52
2022/04/14 05:16:06;;;;;;;14.17;12.60;;;10.00;99.90;;;;;;5009163;28;20492;-52
2022/04/14 05:18:32;;;;;;;15.17;13.77;;;10.00;99.90;;;;;;5007382;28;20611;-54
2022/04/14 05:20:58;;;;;;;14.43;12.50;;;10.00;99.90;;;;;;5014546;28;20446;-53
2022/04/14 05:23:23;;;;;;;13.30;12.03;;;10.20;99.90;;;;;;5016124;28;20466;-55
2022/04/14 05:25:49;;;;;;;13.57;12.07;;;10.20;99.90;;;;;;5022576;28;20723;-56
2022/04/14 05:28:15;;;;;;;14.80;13.30;;;10.20;99.90;;;;;;5011871;28;20237;-56
2022/04/14 05:30:40;;;;;;;15.47;13.83;;;10.30;99.90;;;;;;5012069;28;20774;-53
2022/04/14 05:33:10;;;;;;;14.10;12.27;;;10.30;99.90;;;;;;5014925;28;20214;-55
2022/04/14 05:35:37;;;;;;;14.93;13.23;;;10.40;99.90;;;;;;5020603;28;20298;-53
2022/04/14 05:38:03;;;;;;;14.03;12.47;;;10.40;99.90;;;;;;5028998;28;20414;-56
2022/04/14 05:40:28;;;;;;;16.60;13.00;;;10.40;99.90;;;;;;5014537;28;20497;-52
2022/04/14 05:42:54;;;;;;;13.87;12.47;;;10.50;99.90;;;;;;5008849;28;20294;-55
2022/04/14 05:45:21;;;;;;;13.20;11.70;;;10.60;99.90;;;;;;5008125;28;20530;-54
2022/04/14 05:47:46;;;;;;;15.17;13.47;;;10.60;99.90;;;;;;5027510;28;20183;-55
2022/04/14 05:50:12;;;;;;;14.07;12.63;;;10.70;99.80;;;;;;5018102;28;20944;-54
2022/04/14 05:52:38;;;;;;;15.57;12.70;;;10.80;99.50;;;;;;5026317;28;20483;-56
2022/04/14 05:55:04;;;;;;;13.57;12.17;;;10.90;99.20;;;;;;5017235;28;20474;-57
2022/04/14 05:57:29;;;;;;;15.37;11.80;;;11.00;98.70;;;;;;5009982;28;20702;-57
2022/04/14 05:59:56;;;;;;;15.23;11.73;;;11.20;98.30;;;;;;5022158;28;21232;-54
2022/04/14 06:02:23;;;;;;;14.13;12.73;;;11.20;98.10;;;;;;5009783;28;20209;-53
2022/04/14 06:04:49;;;;;;;13.70;12.40;;;11.40;97.80;;;;;;5022012;28;21271;-56
2022/04/14 06:07:14;;;;;;;15.13;12.60;;;11.50;97.30;;;;;;5022693;28;20183;-55
2022/04/14 06:09:40;;;;;;;12.40;11.20;;;11.70;96.80;;;;;;5025981;28;20207;-55
2022/04/14 06:12:06;;;;;;;14.43;13.00;;;11.70;96.70;;;;;;5011326;28;20271;-53
2022/04/14 06:14:33;;;;;;;14.63;12.67;;;11.80;96.50;;;;;;5030887;28;20194;-55
2022/04/14 06:16:59;;;;;;;14.40;12.90;;;11.90;96.20;;;;;;5012060;28;20435;-55
2022/04/14 06:19:25;;;;;;;14.17;12.77;;;11.90;95.70;;;;;;5017291;28;21125;-49
2022/04/14 06:21:50;;;;;;;13.40;12.10;;;12.00;95.30;;;;;;5014617;28;20445;-54
2022/04/14 06:24:16;;;;;;;13.90;12.57;;;12.10;95.30;;;;;;5025042;28;20277;-56
2022/04/14 06:26:42;;;;;;;13.37;12.20;;;12.20;95.10;;;;;;5011867;28;20488;-58
2022/04/14 06:29:07;;;;;;;13.60;11.87;;;12.30;94.80;;;;;;5019469;28;20206;-57
2022/04/14 06:31:33;;;;;;;13.20;11.80;;;12.40;94.40;;;;;;5013843;28;20234;-55
2022/04/14 06:33:58;;;;;;;13.47;12.17;;;12.50;94.30;;;;;;5019812;28;20190;-56
2022/04/14 06:36:24;;;;;;;13.00;11.80;;;12.60;94.10;;;;;;5019698;28;20558;-56
2022/04/14 06:38:49;;;;;;;14.23;12.83;;;12.70;93.60;;;;;;5032361;28;20189;-52
2022/04/14 06:41:15;;;;;;;14.67;13.17;;;12.80;93.20;;;;;;5018583;28;20192;-56
2022/04/14 06:43:40;;;;;;;13.63;12.07;;;12.90;92.80;;;;;;5017918;28;20299;-56
2022/04/14 06:46:06;;;;;;;14.13;12.73;;;13.00;92.40;;;;;;5023768;28;20172;-55
2022/04/14 06:48:32;;;;;;;14.50;13.17;;;13.10;92.10;;;;;;5011926;28;20186;-55
2022/04/14 06:51:00;;;;;;;13.50;12.10;;;13.20;92.00;;;;;;5011901;28;20858;-56
2022/04/14 06:53:26;;;;;;;14.47;12.97;;;13.20;91.60;;;;;;5012554;28;20439;-57
2022/04/14 06:55:53;;;;;;;14.37;12.87;;;13.30;91.70;;;;;;5011494;28;20524;-57
2022/04/14 06:58:21;;;;;;;15.67;12.63;;;13.40;91.50;;;;;;5012384;28;20870;-52
2022/04/14 07:00:47;;;;;;;13.57;12.30;;;13.60;91.00;;;;;;5010615;28;20485;-57
2022/04/14 07:03:13;;;;;;;14.73;13.33;;;13.70;90.60;;;;;;5011691;28;20462;-57
2022/04/14 07:05:38;;;;;;;14.50;13.17;;;13.80;90.30;;;;;;5010532;28;20184;-55
2022/04/14 07:08:04;;;;;;;14.03;12.73;;;13.90;89.50;;;;;;5011831;28;20187;-51
2022/04/14 07:10:29;;;;;;;14.93;13.40;;;14.00;88.80;;;;;;5010545;28;20171;-53
2022/04/14 07:12:55;;;;;;;13.97;12.63;;;13.90;88.20;;;;;;5011209;28;20175;-53
2022/04/14 07:15:21;;;;;;;13.10;11.90;;;14.00;88.40;;;;;;5011162;28;20666;-53
2022/04/14 07:17:47;;;;;;;13.50;12.27;;;14.20;87.80;;;;;;5010673;28;20437;-54
2022/04/14 07:20:12;;;;;;;13.63;12.53;;;14.30;86.60;;;;;;5015560;28;20465;-57
2022/04/14 07:22:46;;;;;;;13.73;12.53;;;14.40;86.00;;;;;;5019551;28;20210;-55
2022/04/14 07:25:13;;;;;;;14.10;12.70;;;14.50;85.80;;;;;;5004102;28;20190;-54
2022/04/14 07:27:38;;;;;;;14.60;13.17;;;14.60;84.80;;;;;;5028268;28;20426;-55
2022/04/14 07:30:05;;;;;;;16.47;13.70;;;14.80;83.40;;;;;;5020936;28;20553;-55
2022/04/14 07:32:35;;;;;;;14.57;13.17;;;15.10;81.20;;;;;;5010924;28;20202;-56
2022/04/14 07:35:00;;;;;;;14.83;13.47;;;15.20;80.50;;;;;;5011962;28;20437;-58
2022/04/14 07:37:26;;;;;;;14.30;12.90;;;15.40;79.40;;;;;;5017592;28;20513;-56
2022/04/14 07:39:51;;;;;;;14.73;13.27;;;15.50;78.90;;;;;;5010565;28;20183;-57
2022/04/14 07:42:17;;;;;;;15.33;13.90;;;15.60;78.00;;;;;;5009758;28;20234;-57
2022/04/14 07:44:42;;;;;;;16.57;14.97;;;15.70;78.40;;;;;;5011010;28;20207;-57
2022/04/14 07:47:08;;;;;;;15.87;14.37;;;15.80;78.10;;;;;;5019283;28;20186;-56
2022/04/14 07:49:34;;;;;;;16.33;14.73;;;16.00;77.50;;;;;;5031152;28;20184;-55
2022/04/14 07:51:59;;;;;;;16.53;14.93;;;16.10;77.00;;;;;;5028098;28;20183;-56
2022/04/14 07:54:24;;;;;;;18.10;16.40;;;16.30;77.10;;;;;;5030663;28;20624;-57
2022/04/14 07:56:50;;;;;;;16.50;14.77;;;16.30;76.30;;;;;;5026836;28;20185;-56
2022/04/14 07:59:16;;;;;;;18.13;16.43;;;16.50;76.40;;;;;;5011040;28;20608;-56
2022/04/14 08:01:41;;;;;;;17.33;15.73;;;16.60;74.10;;;;;;5007642;28;20242;-56
2022/04/14 08:04:07;;;;;;;16.60;15.00;;;16.60;73.80;;;;;;5010988;28;20201;-54
2022/04/14 08:06:32;;;;;;;16.60;14.83;;;16.80;74.10;;;;;;5010212;28;20622;-57
2022/04/14 08:08:58;;;;;;;15.83;14.33;;;16.90;73.20;;;;;;5010657;28;20236;-55
2022/04/14 08:11:23;;;;;;;16.53;14.93;;;17.10;73.50;;;;;;5009460;28;20579;-56
2022/04/14 08:13:49;;;;;;;17.73;16.03;;;17.30;72.90;;;;;;5010772;28;20172;-56
2022/04/14 08:16:15;;;;;;;16.33;14.83;;;17.50;72.30;;;;;;5010408;28;20191;-57
2022/04/14 08:18:41;;;;;;;17.33;15.53;;;17.70;70.00;;;;;;5009974;28;20268;-57
2022/04/14 08:21:06;;;;;;;19.10;15.47;;;17.80;70.60;;;;;;5021499;28;21006;-56
2022/04/14 08:23:34;;;;;;;16.30;14.83;;;17.90;72.00;;;;;;5022475;28;20229;-54
2022/04/14 08:26:01;;;;;;;18.03;16.43;;;18.10;71.10;;;;;;5028877;28;20245;-57
2022/04/14 08:28:27;;;;;;;18.40;16.70;;;18.30;69.50;;;;;;5022062;28;20437;-57
2022/04/14 08:30:54;;;;;;;19.03;17.40;;;18.50;67.00;;;;;;5018714;28;20418;-57
2022/04/14 08:33:23;;;;;;;19.13;17.30;;;18.60;66.60;;;;;;5020473;28;20193;-55
2022/04/14 08:35:49;;;;;;;18.70;16.90;;;18.90;65.70;;;;;;5015887;28;20422;-57
2022/04/14 08:38:15;;;;;;;19.47;17.77;;;19.00;65.60;;;;;;5018216;28;20480;-56
2022/04/14 08:40:41;;;;;;;19.97;18.17;;;19.40;65.80;;;;;;5003155;28;20431;-55
2022/04/14 08:43:09;;;;;;;20.07;18.20;;;19.60;64.70;;;;;;5022643;28;20469;-54
2022/04/14 08:45:39;;;;;;;21.27;19.50;;;19.90;64.90;;;;;;5029806;28;20436;-58
2022/04/14 08:48:05;;;;;;;23.47;21.47;;;20.30;63.90;;;;;;5026531;28;20440;-57
2022/04/14 08:50:32;;;;;;;21.07;19.37;;;20.70;59.20;;;;;;5028484;28;20413;-58
2022/04/14 08:52:59;;;;;;;22.53;20.60;;;20.80;53.20;;;;;;5017490;28;20433;-57
2022/04/14 08:55:25;;;;;;;22.23;20.30;;;21.30;99.90;;;;;;5009153;28;20491;-56
2022/04/14 08:57:52;;;;;;;24.03;21.83;;;21.90;99.90;;;;;;5008721;28;20442;-55
2022/04/14 09:00:18;;;;;;;24.47;22.27;;;22.40;99.90;;;;;;5008517;28;20418;-56
2022/04/14 09:02:46;;;;;;;25.00;22.80;;;22.60;99.90;;;;;;5007847;28;20788;-54
2022/04/14 09:05:13;;;;;;;24.43;22.20;;;22.70;99.90;;;;;;5008784;28;20205;-58
2022/04/14 09:07:38;;;;;;;25.73;23.43;;;22.90;99.90;;;;;;5008094;28;20415;-58
2022/04/14 09:10:07;;;;;;;25.53;23.13;;;23.00;99.90;;;;;;5009304;28;20441;-57
2022/04/14 09:12:37;;;;;;;25.30;23.00;;;23.20;99.90;;;;;;5007987;28;20567;-57
2022/04/14 09:15:03;;;;;;;25.57;23.37;;;23.60;99.90;;;;;;4989666;28;20416;-57
2022/04/14 09:17:29;;;;;;;27.27;24.87;;;23.80;99.90;;;;;;4988109;28;20821;-57
2022/04/14 09:19:54;;;;;;;26.30;23.90;;;24.00;99.90;;;;;;5007455;28;20422;-56
2022/04/14 09:22:23;;;;;;;27.07;24.50;;;24.40;99.90;;;;;;5008242;28;20192;-56
2022/04/14 09:24:55;;;;;;;26.73;24.43;;;24.80;99.90;;;;;;5007009;28;20292;-58
2022/04/14 09:27:26;;;;;;;26.43;23.93;;;25.10;99.90;;;;;;5009072;28;20869;-58
2022/04/14 09:29:54;;;;;;;26.43;23.73;;;25.20;99.90;;;;;;5006583;28;20465;-57
2022/04/14 09:32:37;;;;;;;26.40;24.13;;;25.30;99.90;;;;;;5007616;28;20457;-57
2022/04/14 09:35:15;;;;;;;27.23;24.73;;;25.40;99.90;;;;;;5007682;28;20436;-57
2022/04/14 09:37:41;;;;;;;27.17;24.80;;;25.50;99.90;;;;;;5008259;28;20412;-57
2022/04/14 09:40:08;;;;;;;27.07;24.77;;;25.30;99.90;;;;;;5007551;28;20437;-57
2022/04/14 09:42:36;;;;;;;26.13;23.83;;;25.20;99.90;;;;;;5008412;28;20468;-58
2022/04/14 09:45:18;;;;;;;28.30;25.90;;;25.10;99.90;;;;;;5007445;28;20541;-58
2022/04/14 09:47:45;;;;;;;28.27;25.77;;;25.40;99.90;;;;;;5011015;28;20971;-58
2022/04/14 09:50:40;;;;;;;25.90;23.70;;;25.60;99.90;;;;;;5011484;28;20464;-58
2022/04/14 09:53:18;;;;;;;27.50;25.30;;;26.20;99.90;;;;;;5011741;28;20979;-58
2022/04/14 09:55:50;;;;;;;27.43;25.00;;;27.30;99.90;;;;;;5011953;28;20457;-58
2022/04/14 09:58:26;;;;;;;26.13;23.83;;;27.10;99.90;;;;;;5011458;28;20407;-58
2022/04/14 10:00:57;;;;;;;27.20;24.60;;;27.00;99.90;;;;;;5011400;28;20418;-58
2022/04/14 10:03:25;;;;;;;25.10;22.70;;;27.30;99.90;;;;;;5010377;28;20454;-56
2022/04/14 10:05:56;;;;;;;25.03;22.70;;;27.10;99.90;;;;;;5006616;28;20488;-58
2022/04/14 10:08:25;;;;;;;25.80;23.40;;;26.90;99.90;;;;;;5011219;28;20411;-57
2022/04/14 10:11:05;;;;;;;24.97;22.60;;;26.60;99.90;;;;;;5000184;28;20442;-57
2022/04/14 10:13:49;;;;;;;24.93;22.73;;;26.80;99.90;;;;;;4993046;28;20407;-58
2022/04/14 10:16:20;;;;;;;23.50;21.30;;;27.00;99.90;;;;;;5001211;28;20432;-58
2022/04/14 10:18:46;;;;;;;26.23;24.00;;;27.20;99.90;;;;;;5012382;28;20403;-58
2022/04/14 10:21:14;;;;;;;23.77;21.57;;;27.20;99.90;;;;;;5010971;28;20453;-58
2022/04/14 10:23:41;;;;;;;25.90;23.70;;;27.20;99.90;;;;;;5012041;28;21070;-58
2022/04/14 10:26:07;;;;;;;26.27;24.10;;;27.00;99.90;;;;;;5010805;28;20466;-59
2022/04/14 10:28:36;;;;;;;24.60;22.33;;;27.50;99.90;;;;;;5016680;28;20425;-59
2022/04/14 10:31:01;;;;;;;25.57;23.37;;;28.00;99.90;;;;;;5016010;28;20450;-58
2022/04/14 10:33:28;;;;;;;24.83;22.63;;;28.10;99.90;;;;;;5011484;28;20528;-58
2022/04/14 10:35:53;;;;;;;26.87;24.57;;;28.50;99.90;;;;;;5017913;28;20210;-59
2022/04/14 10:38:34;;;;;;;25.97;23.57;;;28.90;99.90;;;;;;5014729;28;20683;-59
2022/04/14 10:41:04;;;;;;;25.30;23.20;;;28.50;99.90;;;;;;5026496;28;20175;-59
2022/04/14 10:43:33;;;;;;;26.77;24.37;;;28.60;99.90;;;;;;5029847;28;20566;-58
2022/04/14 10:46:01;;;;;;;27.50;25.07;;;28.70;99.90;;;;;;5027604;28;20461;-58
2022/04/14 10:48:34;;;;;;;26.93;24.63;;;28.10;99.90;;;;;;5011294;28;20411;-58
2022/04/14 10:51:25;;;;;;;26.17;23.97;;;27.40;99.90;;;;;;5017628;28;20401;-58
2022/04/14 10:54:12;;;;;;;25.90;23.80;;;26.60;99.90;;;;;;5014587;28;20424;-57
2022/04/14 10:56:38;;;;;;;25.33;23.03;;;26.70;99.90;;;;;;5023376;28;20465;-58
2022/04/14 10:59:05;;;;;;;27.30;25.00;;;27.10;99.90;;;;;;5017363;28;20941;-58
2022/04/14 11:01:45;;;;;;;25.73;23.60;;;27.60;99.90;;;;;;5017945;28;20199;-59
2022/04/14 11:04:43;;;;;;;25.43;23.23;;;27.70;99.90;;;;;;5006184;28;20457;-58
2022/04/14 11:07:12;;;;;;;27.13;24.70;;;27.50;99.90;;;;;;5019857;28;20462;-59
2022/04/14 11:09:57;;;;;;;23.90;21.77;;;27.60;99.90;;;;;;5011175;28;20411;-58
2022/04/14 11:12:25;;;;;;;25.90;23.80;;;27.70;99.90;;;;;;5011348;28;20446;-58
2022/04/14 11:15:00;;;;;;;25.20;23.00;;;28.30;99.90;;;;;;5011048;28;20413;-58
2022/04/14 11:20:20;;;;;;;25.00;22.87;;;28.20;99.90;;;;;;5009900;28;20504;-59
2022/04/14 11:23:08;;;;;;;24.83;22.73;;;27.80;99.90;;;;;;5018860;28;20426;-56
2022/04/14 11:25:43;;;;;;;25.17;22.80;;;27.00;99.90;;;;;;5025580;28;20943;-56
2022/04/14 11:28:36;;;;;;;26.23;24.03;;;26.60;99.90;;;;;;5010792;28;20426;-58
2022/04/14 11:31:22;;;;;;;23.67;21.60;;;26.20;99.90;;;;;;5009067;28;20425;-58
2022/04/14 11:33:53;;;;;;;23.40;21.30;;;25.50;99.90;;;;;;5025119;28;20475;-58
2022/04/14 11:36:25;;;;;;;24.47;22.00;;;25.70;99.90;;;;;;5020486;28;20428;-56
2022/04/14 11:39:20;;;;;;;25.13;22.80;;;26.20;99.90;;;;;;5026452;28;20915;-59
2022/04/14 11:41:50;;;;;;;24.80;22.30;;;27.00;99.90;;;;;;5017738;28;20423;-57
2022/04/14 11:44:21;;;;;;;23.00;20.87;;;26.90;99.90;;;;;;5023300;28;20469;-57
2022/04/14 11:46:54;;;;;;;21.97;20.00;;;27.00;99.90;;;;;;5009818;28;20435;-58
2022/04/14 11:49:25;;;;;;;23.57;21.47;;;27.20;99.90;;;;;;5023571;28;20414;-57
2022/04/14 11:51:55;;;;;;;24.10;21.83;;;26.90;99.90;;;;;;5006492;28;20434;-58
2022/04/14 11:54:22;;;;;;;23.50;21.47;;;26.90;99.90;;;;;;5010782;28;20960;-58
2022/04/14 11:56:56;;;;;;;22.30;20.40;;;26.50;99.90;;;;;;5022590;28;20422;-57
2022/04/14 11:59:44;;;;;;;23.93;21.90;;;26.50;99.90;;;;;;5018498;28;20436;-57
2022/04/14 12:02:14;;;;;;;23.37;21.53;;;26.80;99.90;;;;;;5029895;28;20800;-58
2022/04/14 12:04:44;;;;;;;21.80;19.90;;;27.10;99.90;;;;;;5015231;28;20466;-58
2022/04/14 12:07:11;;;;;;;20.97;19.37;;;27.10;99.90;;;;;;5011897;28;20427;-58
2022/04/14 12:09:37;;;;;;;19.23;17.63;;;27.20;99.90;;;;;;5021028;28;20434;-57
2022/04/14 12:12:17;;;;;;;19.70;18.13;;;27.20;99.90;;;;;;5013869;28;20975;-58
2022/04/14 12:14:53;;;;;;;18.07;16.77;;;27.30;99.90;;;;;;5009559;28;20932;-58
2022/04/14 12:17:22;;;;;;;19.03;17.63;;;27.50;99.90;;;;;;5009497;28;20418;-58
2022/04/14 12:19:53;;;;;;;18.90;17.40;;;27.10;99.90;;;;;;5009078;28;21007;-58
2022/04/14 12:22:19;;;;;;;18.37;16.97;;;27.10;99.90;;;;;;5029407;28;20425;-59
2022/04/14 12:24:53;;;;;;;17.40;16.10;;;27.50;99.90;;;;;;5023063;28;20500;-58
2022/04/14 12:27:23;;;;;;;20.27;18.67;;;27.60;99.90;;;;;;5027038;28;20450;-59
2022/04/14 12:29:50;;;;;;;19.20;17.80;;;27.80;99.90;;;;;;5008894;28;20428;-59
2022/04/14 12:32:17;;;;;;;18.37;16.97;;;27.70;99.90;;;;;;5008857;28;20447;-59
2022/04/14 12:34:44;;;;;;;17.30;16.00;;;27.80;99.90;;;;;;5015337;28;20438;-58